createdAt,value
2023-04-18T00:01:59.727Z,101484.16
2023-04-18T00:04:28.569Z,101486.91
2023-04-18T00:06:56.949Z,101486.22
2023-04-18T00:09:25.768Z,101491.38
2023-04-18T00:11:54.255Z,101492.34
2023-04-18T00:14:23.969Z,101488.81
2023-04-18T00:16:54.340Z,101490.47
2023-04-18T00:19:22.746Z,101492.41
2023-04-18T00:21:53.283Z,101487.19
2023-04-18T00:24:21.604Z,101492.41
2023-04-18T00:26:50.108Z,101493.31
2023-04-18T00:29:18.532Z,101490.69
2023-04-18T00:31:48.461Z,101495.09
2023-04-18T00:34:17.278Z,101504.59
2023-04-18T00:36:46.980Z,101492.66
2023-04-18T00:39:16.458Z,101494.41
2023-04-18T00:41:44.783Z,101498.69
2023-04-18T00:44:13.188Z,101485.81
2023-04-18T00:46:41.663Z,101484.97
2023-04-18T00:49:11.752Z,101487.56
2023-04-18T00:51:41.175Z,101470.34
2023-04-18T00:54:11.799Z,101483.22
2023-04-18T00:56:40.814Z,101473.75
2023-04-18T00:59:10.635Z,101462.59
2023-04-18T01:01:40.575Z,101463.44
2023-04-18T01:04:11.509Z,101462.69
2023-04-18T01:06:44.137Z,101462.75
2023-04-18T01:09:14.057Z,101454.09
2023-04-18T01:11:42.332Z,101452.28
2023-04-18T01:14:11.139Z,101450.69
2023-04-18T01:16:40.111Z,101453.25
2023-04-18T01:19:08.543Z,101446.34
2023-04-18T01:21:43.841Z,101447.31
2023-04-18T01:24:17.701Z,101452.47
2023-04-18T01:26:48.517Z,101461.91
2023-04-18T01:29:17.063Z,101451.59
2023-04-18T01:31:46.088Z,101442.16
2023-04-18T01:34:18.029Z,101439.56
2023-04-18T01:36:47.398Z,101446.41
2023-04-18T01:39:18.513Z,101448.22
2023-04-18T01:41:47.133Z,101439.53
2023-04-18T01:44:15.773Z,101436.84
2023-04-18T01:46:47.385Z,101450.72
2023-04-18T01:49:16.231Z,101439.53
2023-04-18T01:51:44.476Z,101441.28
2023-04-18T01:54:13.020Z,101434.41
2023-04-18T01:56:42.897Z,101436.16
2023-04-18T01:59:11.360Z,101426.59
2023-04-18T02:01:40.081Z,101430.13
2023-04-18T02:04:08.501Z,101431.09
2023-04-18T02:06:36.997Z,101435.38
2023-04-18T02:09:06.113Z,101431.06
2023-04-18T02:11:34.422Z,101425.81
2023-04-18T02:14:06.618Z,101418.06
2023-04-18T02:16:35.427Z,101416.44
2023-04-18T02:19:04.420Z,101427.66
2023-04-18T02:21:32.727Z,101419.94
2023-04-18T02:24:01.049Z,101421.66
2023-04-18T02:26:29.374Z,101420.84
2023-04-18T02:28:59.889Z,101412.31
2023-04-18T02:31:33.290Z,101410.66
2023-04-18T02:34:01.591Z,101415.72
2023-04-18T02:36:29.868Z,101414.88
2023-04-18T02:38:58.240Z,101407.88
2023-04-18T02:41:26.903Z,101404.59
2023-04-18T02:43:56.413Z,101410.53
2023-04-18T02:46:26.048Z,101412.41
2023-04-18T02:48:55.943Z,101402.94
2023-04-18T02:51:26.908Z,101414.16
2023-04-18T02:53:57.413Z,101411.59
2023-04-18T02:56:29.889Z,101405.44
2023-04-18T02:59:19.521Z,101403.81
2023-04-18T03:02:09.208Z,101400.41
2023-04-18T03:04:42.827Z,101413.34
2023-04-18T03:07:11.687Z,101415.13
2023-04-18T03:09:40.909Z,101415.91
2023-04-18T03:12:18.578Z,101404.72
2023-04-18T03:14:47.768Z,101411.66
2023-04-18T03:17:16.498Z,101410.00
2023-04-18T03:19:50.609Z,101409.94
2023-04-18T03:22:21.206Z,101405.59
2023-04-18T03:24:57.768Z,101414.19
2023-04-18T03:27:41.014Z,101411.59
2023-04-18T03:30:10.487Z,101410.72
2023-04-18T03:32:42.288Z,101402.97
2023-04-18T03:35:12.680Z,101405.59
2023-04-18T03:37:41.141Z,101409.06
2023-04-18T03:40:12.876Z,101409.88
2023-04-18T03:42:42.965Z,101406.41
2023-04-18T03:45:12.905Z,101414.16
2023-04-18T03:47:41.912Z,101405.53
2023-04-18T03:50:12.138Z,101408.09
2023-04-18T03:52:42.325Z,101409.81
2023-04-18T03:55:11.484Z,101412.41
2023-04-18T03:57:41.418Z,101403.81
2023-04-18T04:00:15.859Z,101404.69
2023-04-18T04:02:44.383Z,101405.63
2023-04-18T04:05:21.018Z,101400.47
2023-04-18T04:07:50.680Z,101397.84
2023-04-18T04:10:19.626Z,101396.97
2023-04-18T04:12:49.385Z,101406.50
2023-04-18T04:15:18.318Z,101392.78
2023-04-18T04:17:52.892Z,101398.00
2023-04-18T04:20:24.859Z,101398.03
2023-04-18T04:23:00.956Z,101406.72
2023-04-18T04:25:30.033Z,101410.13
2023-04-18T04:28:02.976Z,101411.00
2023-04-18T04:30:35.916Z,101409.13
2023-04-18T04:33:04.362Z,101403.84
2023-04-18T04:35:34.910Z,101408.19
2023-04-18T04:38:03.936Z,101411.56
2023-04-18T04:40:39.900Z,101400.31
2023-04-18T04:43:15.660Z,101414.78
2023-04-18T04:45:46.017Z,101402.69
2023-04-18T04:48:14.498Z,101399.97
2023-04-18T04:50:53.119Z,101403.50
2023-04-18T04:53:21.596Z,101400.09
2023-04-18T04:55:50.265Z,101400.88
2023-04-18T04:58:19.480Z,101402.56
2023-04-18T05:01:12.492Z,101411.09
2023-04-18T05:03:41.852Z,101407.56
2023-04-18T05:06:11.869Z,101408.38
2023-04-18T05:08:40.221Z,101409.22
2023-04-18T05:11:08.459Z,101402.22
2023-04-18T05:13:36.719Z,101394.66
2023-04-18T05:16:05.982Z,101397.22
2023-04-18T05:18:35.097Z,101392.88
2023-04-18T05:21:03.478Z,101389.44
2023-04-18T05:23:34.986Z,101387.69
2023-04-18T05:26:03.582Z,101396.28
2023-04-18T05:28:31.924Z,101394.44
2023-04-18T05:31:02.355Z,101393.53
2023-04-18T05:33:31.221Z,101399.69
2023-04-18T05:36:00.180Z,101398.78
2023-04-18T05:38:28.693Z,101403.88
2023-04-18T05:41:00.429Z,101408.19
2023-04-18T05:43:28.964Z,101414.16
2023-04-18T05:45:57.956Z,101407.31
2023-04-18T05:48:26.404Z,101415.16
2023-04-18T05:50:54.958Z,101410.03
2023-04-18T05:53:23.345Z,101414.47
2023-04-18T05:55:51.677Z,101414.31
2023-04-18T05:58:21.339Z,101406.63
2023-04-18T06:00:49.682Z,101410.97
2023-04-18T06:03:18.051Z,101416.91
2023-04-18T06:05:46.673Z,101409.91
2023-04-18T06:08:14.967Z,101414.06
2023-04-18T06:10:43.224Z,101406.78
2023-04-18T06:13:12.624Z,101405.03
2023-04-18T06:15:42.250Z,101410.00
2023-04-18T06:18:10.595Z,101407.69
2023-04-18T06:20:38.945Z,101402.47
2023-04-18T06:23:08.242Z,101406.38
2023-04-18T06:25:39.096Z,101410.44
2023-04-18T06:28:07.353Z,101405.09
2023-04-18T06:30:35.936Z,101406.25
2023-04-18T06:33:06.196Z,101394.84
2023-04-18T06:35:34.451Z,101399.47
2023-04-18T06:38:03.265Z,101391.78
2023-04-18T06:40:31.612Z,101395.50
2023-04-18T06:42:59.817Z,101394.28
2023-04-18T06:45:31.260Z,101388.56
2023-04-18T06:48:00.180Z,101396.19
2023-04-18T06:50:31.030Z,101406.25
2023-04-18T06:52:59.346Z,101403.13
2023-04-18T06:55:27.673Z,101404.91
2023-04-18T06:57:56.252Z,101390.72
2023-04-18T07:00:24.524Z,101399.03
2023-04-18T07:02:53.024Z,101400.66
2023-04-18T07:05:21.468Z,101399.44
2023-04-18T07:07:51.352Z,101391.19
2023-04-18T07:10:20.205Z,101397.63
2023-04-18T07:12:48.686Z,101383.41
2023-04-18T07:15:17.113Z,101403.47
2023-04-18T07:17:45.313Z,101404.16
2023-04-18T07:20:14.448Z,101412.53
2023-04-18T07:22:43.225Z,101399.44
2023-04-18T07:25:13.195Z,101391.50
2023-04-18T07:27:41.602Z,101398.81
2023-04-18T07:30:10.902Z,101389.59
2023-04-18T07:32:39.385Z,101396.13
2023-04-18T07:35:08.142Z,101381.69
2023-04-18T07:37:36.606Z,101385.31
2023-04-18T07:40:05.878Z,101384.09
2023-04-18T07:42:36.248Z,101387.16
2023-04-18T07:45:04.864Z,101383.91
2023-04-18T07:47:33.593Z,101385.09
2023-04-18T07:50:02.467Z,101385.41
2023-04-18T07:52:30.868Z,101394.16
2023-04-18T07:54:59.450Z,101392.16
2023-04-18T07:57:27.695Z,101390.41
2023-04-18T07:59:57.396Z,101395.91
2023-04-18T08:02:25.905Z,101388.84
2023-04-18T08:04:56.461Z,101388.72
2023-04-18T08:07:25.012Z,101391.06
2023-04-18T08:09:53.432Z,101394.72
2023-04-18T08:12:21.886Z,101384.53
2023-04-18T08:14:50.444Z,101394.56
2023-04-18T08:17:20.428Z,101394.09
2023-04-18T08:19:48.728Z,101405.28
2023-04-18T08:22:16.992Z,101404.28
2023-04-18T08:25:00.952Z,101404.44
2023-04-18T08:27:31.932Z,101396.00
2023-04-18T08:30:00.672Z,101399.09
2023-04-18T08:32:30.569Z,101412.31
2023-04-18T08:34:58.982Z,101411.72
2023-04-18T08:37:28.098Z,101413.38
2023-04-18T08:39:56.673Z,101412.47
2023-04-18T08:42:25.321Z,101406.28
2023-04-18T08:44:54.112Z,101403.63
2023-04-18T08:47:22.479Z,101396.66
2023-04-18T08:49:53.693Z,101397.66
2023-04-18T08:52:23.843Z,101397.41
2023-04-18T08:54:52.618Z,101392.34
2023-04-18T08:57:26.956Z,101391.66
2023-04-18T08:59:55.754Z,101382.00
2023-04-18T09:02:39.113Z,101387.81
2023-04-18T09:05:14.801Z,101383.69
2023-04-18T09:07:43.972Z,101381.25
2023-04-18T09:10:13.924Z,101375.22
2023-04-18T09:12:50.429Z,101375.94
2023-04-18T09:15:22.647Z,101374.97
2023-04-18T09:17:54.185Z,101369.69
2023-04-18T09:20:34.690Z,101372.09
2023-04-18T09:23:05.058Z,101367.63
2023-04-18T09:25:36.148Z,101369.94
2023-04-18T09:28:05.977Z,101359.34
2023-04-18T09:30:38.152Z,101364.31
2023-04-18T09:33:07.873Z,101369.88
2023-04-18T09:35:38.470Z,101376.88
2023-04-18T09:38:07.711Z,101363.59
2023-04-18T09:40:36.161Z,101400.88
2023-04-18T09:43:19.464Z,101369.50
2023-04-18T09:45:48.837Z,101354.69
2023-04-18T09:48:17.214Z,101376.47
2023-04-18T09:50:49.616Z,101370.09
2023-04-18T09:53:21.010Z,101353.91
2023-04-18T09:55:53.297Z,101355.13
2023-04-18T09:58:23.709Z,101363.50
2023-04-18T10:00:54.515Z,101355.63
2023-04-18T10:03:25.311Z,101344.94
2023-04-18T10:05:57.964Z,101356.06
2023-04-18T10:08:27.577Z,101357.84
2023-04-18T10:10:58.747Z,101350.03
2023-04-18T10:13:29.023Z,101345.47
2023-04-18T10:15:57.921Z,101351.09
2023-04-18T10:18:27.756Z,101349.47
2023-04-18T10:21:04.422Z,101328.53
2023-04-18T10:23:37.198Z,101340.38
2023-04-18T10:26:06.230Z,101338.03
2023-04-18T10:28:55.257Z,101343.78
2023-04-18T10:31:24.396Z,101325.69
2023-04-18T10:34:04.622Z,101323.50
2023-04-18T10:36:36.049Z,101313.22
2023-04-18T10:39:22.061Z,101312.63
2023-04-18T10:41:51.595Z,101321.88
2023-04-18T10:44:24.331Z,101314.84
2023-04-18T10:47:32.425Z,101312.25
2023-04-18T10:50:06.180Z,101314.03
2023-04-18T10:52:38.762Z,101307.38
2023-04-18T10:55:16.603Z,101305.13
2023-04-18T10:57:46.714Z,101318.16
2023-04-18T11:00:17.440Z,101307.25
2023-04-18T11:02:57.933Z,101314.69
2023-04-18T11:05:28.145Z,101311.94
2023-04-18T11:07:57.761Z,101310.78
2023-04-18T11:10:27.885Z,101303.09
2023-04-18T11:12:57.498Z,101296.13
2023-04-18T11:15:28.011Z,101306.06
2023-04-18T11:18:00.017Z,101289.34
2023-04-18T11:20:29.474Z,101282.63
2023-04-18T11:23:00.781Z,101286.84
2023-04-18T11:25:30.915Z,101289.97
2023-04-18T11:28:00.973Z,101285.03
2023-04-18T11:30:31.436Z,101277.94
2023-04-18T11:32:59.826Z,101275.47
2023-04-18T11:35:28.292Z,101265.88
2023-04-18T11:37:58.035Z,101262.88
2023-04-18T11:40:26.807Z,101284.75
2023-04-18T11:42:56.510Z,101285.78
2023-04-18T11:45:24.824Z,101290.13
2023-04-18T11:47:58.346Z,101273.47
2023-04-18T11:50:27.196Z,101264.94
2023-04-18T11:52:56.545Z,101274.22
2023-04-18T11:55:27.358Z,101282.72
2023-04-18T11:57:57.022Z,101272.69
2023-04-18T12:00:33.980Z,101267.13
2023-04-18T12:03:04.607Z,101272.00
2023-04-18T12:05:34.797Z,101258.31
2023-04-18T12:08:12.009Z,101253.41
2023-04-18T12:10:48.504Z,101246.69
2023-04-18T12:13:16.845Z,101253.31
2023-04-18T12:15:46.808Z,101244.06
2023-04-18T12:18:19.822Z,101241.31
2023-04-18T12:20:50.675Z,101261.91
2023-04-18T12:23:33.006Z,101243.72
2023-04-18T12:26:03.955Z,101242.94
2023-04-18T12:28:32.948Z,101231.13
2023-04-18T12:31:01.305Z,101246.94
2023-04-18T12:33:29.710Z,101237.63
2023-04-18T12:35:57.984Z,101252.22
2023-04-18T12:38:27.225Z,101234.47
2023-04-18T12:40:55.562Z,101250.50
2023-04-18T12:43:25.813Z,101232.34
2023-04-18T12:45:54.434Z,101235.88
2023-04-18T12:48:22.689Z,101242.16
2023-04-18T12:50:51.010Z,101233.47
2023-04-18T12:53:19.152Z,101234.31
2023-04-18T12:55:47.803Z,101227.13
2023-04-18T12:58:18.838Z,101241.09
2023-04-18T13:00:49.212Z,101230.66
2023-04-18T13:03:17.694Z,101239.22
2023-04-18T13:05:47.090Z,101228.34
2023-04-18T13:08:17.607Z,101233.22
2023-04-18T13:10:47.763Z,101214.72
2023-04-18T13:13:16.280Z,101221.59
2023-04-18T13:15:44.531Z,101220.59
2023-04-18T13:18:14.187Z,101228.25
2023-04-18T13:20:42.353Z,101241.91
2023-04-18T13:23:11.637Z,101230.72
2023-04-18T13:25:40.305Z,101220.63
2023-04-18T13:28:08.529Z,101194.25
2023-04-18T13:30:36.868Z,101214.06
2023-04-18T13:33:05.473Z,101207.50
2023-04-18T13:35:35.263Z,101204.78
2023-04-18T13:38:04.079Z,101201.50
2023-04-18T13:40:33.547Z,101198.44
2023-04-18T13:43:02.166Z,101201.66
2023-04-18T13:45:30.517Z,101209.50
2023-04-18T13:47:58.887Z,101211.50
2023-04-18T13:50:28.233Z,101201.75
2023-04-18T13:52:57.855Z,101218.78
2023-04-18T13:55:26.373Z,101196.28
2023-04-18T13:57:55.022Z,101201.69
2023-04-18T14:00:23.521Z,101203.25
2023-04-18T14:02:52.027Z,101199.59
2023-04-18T14:05:20.554Z,101205.84
2023-04-18T14:07:49.928Z,101209.63
2023-04-18T14:10:20.205Z,101200.69
2023-04-18T14:12:48.480Z,101195.16
2023-04-18T14:15:16.944Z,101187.31
2023-04-18T14:17:46.035Z,101196.19
2023-04-18T14:20:15.757Z,101186.88
2023-04-18T14:22:44.059Z,101231.22
2023-04-18T14:25:12.536Z,101186.91
2023-04-18T14:27:42.566Z,101203.44
2023-04-18T14:30:12.121Z,101169.38
2023-04-18T14:32:40.646Z,101161.72
2023-04-18T14:35:11.276Z,101175.16
2023-04-18T14:37:39.855Z,101178.81
2023-04-18T14:40:10.102Z,101185.28
2023-04-18T14:42:38.966Z,101176.97
2023-04-18T14:45:11.409Z,101181.09
2023-04-18T14:47:40.289Z,101188.41
2023-04-18T14:50:11.905Z,101181.81
2023-04-18T14:52:40.448Z,101170.25
2023-04-18T14:55:09.938Z,101161.97
2023-04-18T14:57:39.327Z,101158.63
2023-04-18T15:00:12.651Z,101145.25
2023-04-18T15:02:43.340Z,101161.97
2023-04-18T15:05:13.455Z,101146.69
2023-04-18T15:07:43.583Z,101165.38
2023-04-18T15:10:13.185Z,101154.56
2023-04-18T15:12:41.831Z,101162.91
2023-04-18T15:15:12.517Z,101137.75
2023-04-18T15:17:41.093Z,101157.31
2023-04-18T15:20:10.780Z,101145.13
2023-04-18T15:22:39.079Z,101148.38
2023-04-18T15:25:08.352Z,101154.94
2023-04-18T15:27:37.032Z,101150.59
2023-04-18T15:30:08.760Z,101148.78
2023-04-18T15:32:40.384Z,101146.50
2023-04-18T15:35:09.637Z,101149.97
2023-04-18T15:37:38.118Z,101147.63
2023-04-18T15:40:09.771Z,101132.25
2023-04-18T15:42:38.252Z,101131.94
2023-04-18T15:45:08.539Z,101137.34
2023-04-18T15:47:38.847Z,101140.69
2023-04-18T15:50:09.351Z,101135.63
2023-04-18T15:52:37.760Z,101128.06
2023-04-18T15:55:07.183Z,101144.53
2023-04-18T15:57:36.548Z,101158.53
2023-04-18T16:00:10.470Z,101142.50
2023-04-18T16:02:40.223Z,101136.81
2023-04-18T16:05:09.534Z,101139.31
2023-04-18T16:07:37.664Z,101127.56
2023-04-18T16:10:08.666Z,101142.16
2023-04-18T16:12:37.243Z,101129.47
2023-04-18T16:15:07.075Z,101129.38
2023-04-18T16:17:35.772Z,101131.97
2023-04-18T16:20:08.566Z,101136.56
2023-04-18T16:22:36.994Z,101125.44
2023-04-18T16:25:05.583Z,101118.00
2023-04-18T16:27:33.855Z,101126.28
2023-04-18T16:30:02.187Z,101134.16
2023-04-18T16:32:30.746Z,101146.28
2023-04-18T16:34:59.265Z,101147.13
2023-04-18T16:37:29.122Z,101118.16
2023-04-18T16:39:57.446Z,101113.25
2023-04-18T16:42:25.902Z,101126.97
2023-04-18T16:44:54.239Z,101128.31
2023-04-18T16:47:22.551Z,101128.41
2023-04-18T16:49:51.731Z,101117.81
2023-04-18T16:52:20.044Z,101127.91
2023-04-18T16:54:51.962Z,101115.28
2023-04-18T16:57:21.057Z,101115.00
2023-04-18T16:59:49.337Z,101127.47
2023-04-18T17:02:17.904Z,101117.69
2023-04-18T17:04:46.349Z,101125.63
2023-04-18T17:07:14.573Z,101124.81
2023-04-18T17:09:44.428Z,101126.22
2023-04-18T17:12:14.693Z,101126.00
2023-04-18T17:14:43.061Z,101140.13
2023-04-18T17:17:11.491Z,101145.13
2023-04-18T17:19:40.423Z,101128.81
2023-04-18T17:22:08.799Z,101128.66
2023-04-18T17:24:37.195Z,101133.69
2023-04-18T17:27:05.571Z,101142.75
2023-04-18T17:29:35.372Z,101140.31
2023-04-18T17:32:03.799Z,101134.63
2023-04-18T17:34:32.557Z,101149.81
2023-04-18T17:37:01.054Z,101128.91
2023-04-18T17:39:29.357Z,101132.34
2023-04-18T17:41:57.704Z,101130.97
2023-04-18T17:44:26.099Z,101138.72
2023-04-18T17:46:56.002Z,101129.53
2023-04-18T17:49:24.617Z,101128.81
2023-04-18T17:51:52.843Z,101135.09
2023-04-18T17:54:22.135Z,101128.28
2023-04-18T17:56:50.563Z,101133.22
2023-04-18T17:59:18.894Z,101133.00
2023-04-18T18:01:47.455Z,101124.56
2023-04-18T18:04:17.506Z,101130.09
2023-04-18T18:06:55.054Z,101136.13
2023-04-18T18:09:23.641Z,101139.97
2023-04-18T18:12:33.187Z,101122.25
2023-04-18T18:15:15.161Z,101124.91
2023-04-18T18:18:21.688Z,101136.88
2023-04-18T18:20:47.920Z,101117.78
2023-04-18T18:23:20.047Z,101123.94
2023-04-18T18:26:06.738Z,101122.69
2023-04-18T18:28:44.850Z,101130.66
2023-04-18T18:31:58.614Z,101119.47
2023-04-18T18:34:40.175Z,101119.38
2023-04-18T18:37:51.956Z,101120.44
2023-04-18T18:40:42.779Z,101116.31
2023-04-18T18:46:09.429Z,101135.66
2023-04-18T18:48:59.159Z,101138.75
2023-04-18T18:52:13.324Z,101128.47
2023-04-18T18:54:43.022Z,101131.28
2023-04-18T18:57:11.456Z,101145.22
2023-04-18T18:59:39.681Z,101133.16
2023-04-18T19:02:08.472Z,101132.34
2023-04-18T19:04:37.222Z,101129.84
2023-04-18T19:07:06.176Z,101134.09
2023-04-18T19:09:34.497Z,101147.41
2023-04-18T19:12:04.527Z,101149.34
2023-04-18T19:14:33.020Z,101143.41
2023-04-18T19:17:01.481Z,101151.28
2023-04-18T19:19:29.775Z,101154.00
2023-04-18T19:21:58.124Z,101158.41
2023-04-18T19:24:26.553Z,101163.69
2023-04-18T19:26:54.767Z,101165.34
2023-04-18T19:29:25.276Z,101163.13
2023-04-18T19:31:53.888Z,101173.47
2023-04-18T19:34:22.324Z,101174.53
2023-04-18T19:36:51.035Z,101176.28
2023-04-18T19:39:22.305Z,101172.16
2023-04-18T19:41:50.670Z,101176.34
2023-04-18T19:44:18.962Z,101178.19
2023-04-18T19:46:50.109Z,101175.59
2023-04-18T19:49:18.537Z,101167.19
2023-04-18T19:51:46.774Z,101173.22
2023-04-18T19:54:15.056Z,101174.09
2023-04-18T19:56:46.040Z,101190.63
2023-04-18T19:59:14.980Z,101188.06
2023-04-18T20:01:43.490Z,101187.31
2023-04-18T20:04:17.652Z,101186.53
2023-04-18T20:06:46.221Z,101191.78
2023-04-18T20:09:16.994Z,101197.91
2023-04-18T20:11:46.640Z,101189.47
2023-04-18T20:14:15.043Z,101192.00
2023-04-18T20:16:46.784Z,101191.16
2023-04-18T20:19:19.636Z,101191.97
2023-04-18T20:21:48.065Z,101193.78
2023-04-18T20:24:16.364Z,101191.19
2023-04-18T20:26:46.739Z,101205.06
2023-04-18T20:29:15.360Z,101211.97
2023-04-18T20:31:43.855Z,101193.78
2023-04-18T20:34:12.315Z,101200.03
2023-04-18T20:36:43.549Z,101201.72
2023-04-18T20:39:13.489Z,101203.59
2023-04-18T20:41:46.569Z,101209.66
2023-04-18T20:44:17.480Z,101198.34
2023-04-18T20:46:46.057Z,101193.13
2023-04-18T20:49:14.667Z,101193.16
2023-04-18T20:51:44.659Z,101192.38
2023-04-18T20:54:13.592Z,101184.69
2023-04-18T20:56:42.139Z,101181.38
2023-04-18T20:59:12.856Z,101179.66
2023-04-18T21:01:41.293Z,101193.59
2023-04-18T21:04:09.926Z,101195.44
2023-04-18T21:06:38.394Z,101192.91
2023-04-18T21:09:17.360Z,101182.50
2023-04-18T21:11:45.893Z,101182.56
2023-04-18T21:14:14.320Z,101184.41
2023-04-18T21:16:42.903Z,101181.84
2023-04-18T21:19:12.287Z,101181.84
2023-04-18T21:21:40.685Z,101172.41
2023-04-18T21:24:11.183Z,101170.69
2023-04-18T21:26:39.587Z,101163.72
2023-04-18T21:29:07.957Z,101165.53
2023-04-18T21:31:36.751Z,101169.94
2023-04-18T21:34:06.469Z,101174.38
2023-04-18T21:36:35.052Z,101171.00
2023-04-18T21:39:04.123Z,101176.97
2023-04-18T21:41:33.933Z,101180.56
2023-04-18T21:44:02.380Z,101170.16
2023-04-18T21:46:30.598Z,101172.81
2023-04-18T21:48:58.924Z,101160.78
2023-04-18T21:51:27.327Z,101168.56
2023-04-18T21:53:55.660Z,101163.41
2023-04-18T21:56:23.948Z,101162.59
2023-04-18T21:58:53.670Z,101170.38
2023-04-18T22:01:22.137Z,101166.09
2023-04-18T22:03:50.801Z,101160.97
2023-04-18T22:06:20.831Z,101160.03
2023-04-18T22:08:50.028Z,101167.06
2023-04-18T22:11:18.842Z,101168.81
2023-04-18T22:13:47.524Z,101166.16
2023-04-18T22:16:18.054Z,101162.78
2023-04-18T22:18:46.416Z,101157.56
2023-04-18T22:21:14.787Z,101151.56
2023-04-18T22:23:43.063Z,101155.06
2023-04-18T22:26:11.295Z,101157.75
2023-04-18T22:28:39.761Z,101164.59
2023-04-18T22:31:08.488Z,101153.44
2023-04-18T22:33:38.249Z,101161.25
2023-04-18T22:36:07.270Z,101151.81
2023-04-18T22:38:35.677Z,101154.44
2023-04-18T22:41:03.933Z,101153.63
2023-04-18T22:43:32.489Z,101153.72
2023-04-18T22:46:00.823Z,101159.84
2023-04-18T22:48:30.137Z,101149.56
2023-04-18T22:51:01.985Z,101145.22
2023-04-18T22:53:30.583Z,101145.22
2023-04-18T22:55:58.760Z,101145.28
2023-04-18T22:58:27.138Z,101141.88
2023-04-18T23:00:55.977Z,101138.41
2023-04-18T23:03:24.552Z,101141.94
2023-04-18T23:05:53.023Z,101136.72
2023-04-18T23:08:22.925Z,101131.56
2023-04-18T23:10:51.231Z,101135.03
2023-04-18T23:13:19.523Z,101129.00
2023-04-18T23:15:48.069Z,101129.00
2023-04-18T23:18:16.731Z,101129.81
2023-04-18T23:20:44.942Z,101129.84
2023-04-18T23:23:13.269Z,101140.31
2023-04-18T23:25:42.900Z,101129.13
2023-04-18T23:28:11.133Z,101134.25
2023-04-18T23:30:39.364Z,101121.44
2023-04-18T23:33:08.594Z,101108.47
2023-04-18T23:35:36.818Z,101128.31
2023-04-18T23:38:05.596Z,101119.75
2023-04-18T23:40:33.940Z,101127.56
2023-04-18T23:43:03.981Z,101117.31
2023-04-18T23:45:32.348Z,101122.50
2023-04-18T23:48:01.244Z,101115.59
2023-04-18T23:50:29.649Z,101119.00
2023-04-18T23:52:58.023Z,101119.81
2023-04-18T23:55:26.422Z,101112.06
2023-04-18T23:57:54.778Z,101113.94
